sensor_id;sensor_type;location;lat;lon;timestamp;temperature;humidity
8214;DHT22;4148;47.974;7.824;2022-07-29T00:02:04;19.30;1.00
8214;DHT22;4148;47.974;7.824;2022-07-29T00:04:34;19.30;1.00
8214;DHT22;4148;47.974;7.824;2022-07-29T00:07:02;19.20;1.00
8214;DHT22;4148;47.974;7.824;2022-07-29T00:09:30;19.20;1.00
8214;DHT22;4148;47.974;7.824;2022-07-29T00:11:59;19.10;1.00
8214;DHT22;4148;47.974;7.824;2022-07-29T00:14:28;19.20;1.00
8214;DHT22;4148;47.974;7.824;2022-07-29T00:16:55;19.10;1.00
8214;DHT22;4148;47.974;7.824;2022-07-29T00:19:25;19.10;1.00
8214;DHT22;4148;47.974;7.824;2022-07-29T00:21:53;19.10;1.00
8214;DHT22;4148;47.974;7.824;2022-07-29T00:24:20;19.10;1.00
8214;DHT22;4148;47.974;7.824;2022-07-29T00:26:48;19.00;1.00
8214;DHT22;4148;47.974;7.824;2022-07-29T00:29:16;18.90;1.00
8214;DHT22;4148;47.974;7.824;2022-07-29T00:32:00;18.90;1.00
8214;DHT22;4148;47.974;7.824;2022-07-29T00:34:29;19.10;99.90
8214;DHT22;4148;47.974;7.824;2022-07-29T00:37:15;19.00;1.00
8214;DHT22;4148;47.974;7.824;2022-07-29T00:39:43;19.00;99.90
8214;DHT22;4148;47.974;7.824;2022-07-29T00:42:11;19.10;99.90
8214;DHT22;4148;47.974;7.824;2022-07-29T00:44:40;19.00;1.00
8214;DHT22;4148;47.974;7.824;2022-07-29T00:47:09;18.90;1.00
8214;DHT22;4148;47.974;7.824;2022-07-29T00:49:38;19.00;99.90
8214;DHT22;4148;47.974;7.824;2022-07-29T00:52:08;19.00;99.90
8214;DHT22;4148;47.974;7.824;2022-07-29T00:54:38;19.10;99.90
8214;DHT22;4148;47.974;7.824;2022-07-29T00:57:11;19.10;99.90
8214;DHT22;4148;47.974;7.824;2022-07-29T00:59:39;19.00;99.90
8214;DHT22;4148;47.974;7.824;2022-07-29T01:02:07;19.00;99.90
8214;DHT22;4148;47.974;7.824;2022-07-29T01:04:35;19.00;99.90
8214;DHT22;4148;47.974;7.824;2022-07-29T01:07:05;19.00;99.90
8214;DHT22;4148;47.974;7.824;2022-07-29T01:09:34;19.00;99.90
8214;DHT22;4148;47.974;7.824;2022-07-29T01:12:13;18.90;99.90
8214;DHT22;4148;47.974;7.824;2022-07-29T01:14:43;18.80;1.00
8214;DHT22;4148;47.974;7.824;2022-07-29T01:17:16;18.70;99.90
8214;DHT22;4148;47.974;7.824;2022-07-29T01:19:51;18.70;99.90
8214;DHT22;4148;47.974;7.824;2022-07-29T01:22:31;18.60;99.90
8214;DHT22;4148;47.974;7.824;2022-07-29T01:25:12;18.60;99.90
8214;DHT22;4148;47.974;7.824;2022-07-29T01:27:55;18.60;99.90
8214;DHT22;4148;47.974;7.824;2022-07-29T01:30:32;18.60;99.90
8214;DHT22;4148;47.974;7.824;2022-07-29T01:33:06;18.80;99.90
8214;DHT22;4148;47.974;7.824;2022-07-29T01:35:38;18.70;99.90
8214;DHT22;4148;47.974;7.824;2022-07-29T01:38:10;18.70;99.90
8214;DHT22;4148;47.974;7.824;2022-07-29T01:40:43;18.70;99.90
8214;DHT22;4148;47.974;7.824;2022-07-29T01:43:15;18.60;99.90
8214;DHT22;4148;47.974;7.824;2022-07-29T01:45:48;18.70;99.90
8214;DHT22;4148;47.974;7.824;2022-07-29T01:48:22;18.60;99.90
8214;DHT22;4148;47.974;7.824;2022-07-29T01:50:53;18.50;99.90
8214;DHT22;4148;47.974;7.824;2022-07-29T01:53:36;18.60;99.90
8214;DHT22;4148;47.974;7.824;2022-07-29T01:56:06;18.60;99.90
8214;DHT22;4148;47.974;7.824;2022-07-29T01:58:39;18.40;99.90
8214;DHT22;4148;47.974;7.824;2022-07-29T02:01:11;18.60;99.90
8214;DHT22;4148;47.974;7.824;2022-07-29T02:03:41;18.60;99.90
8214;DHT22;4148;47.974;7.824;2022-07-29T02:06:11;18.60;99.90
8214;DHT22;4148;47.974;7.824;2022-07-29T02:08:42;18.60;99.90
8214;DHT22;4148;47.974;7.824;2022-07-29T02:11:11;18.50;99.90
8214;DHT22;4148;47.974;7.824;2022-07-29T02:13:39;18.40;99.90
8214;DHT22;4148;47.974;7.824;2022-07-29T02:16:10;18.40;99.90
8214;DHT22;4148;47.974;7.824;2022-07-29T02:18:41;18.50;99.90
8214;DHT22;4148;47.974;7.824;2022-07-29T02:21:12;18.40;99.90
8214;DHT22;4148;47.974;7.824;2022-07-29T02:23:42;18.40;99.90
8214;DHT22;4148;47.974;7.824;2022-07-29T02:26:18;18.40;1.00
8214;DHT22;4148;47.974;7.824;2022-07-29T02:28:47;18.30;99.90
8214;DHT22;4148;47.974;7.824;2022-07-29T02:31:19;18.20;1.00
8214;DHT22;4148;47.974;7.824;2022-07-29T02:33:49;18.30;1.00
8214;DHT22;4148;47.974;7.824;2022-07-29T02:36:21;18.30;99.90
8214;DHT22;4148;47.974;7.824;2022-07-29T02:38:50;18.40;99.90
8214;DHT22;4148;47.974;7.824;2022-07-29T02:41:23;18.30;91.80
8214;DHT22;4148;47.974;7.824;2022-07-29T02:44:05;18.40;99.90
8214;DHT22;4148;47.974;7.824;2022-07-29T02:46:37;18.30;99.90
8214;DHT22;4148;47.974;7.824;2022-07-29T02:49:13;18.20;99.90
8214;DHT22;4148;47.974;7.824;2022-07-29T02:51:45;18.10;99.90
8214;DHT22;4148;47.974;7.824;2022-07-29T02:54:22;18.00;99.90
8214;DHT22;4148;47.974;7.824;2022-07-29T02:56:52;18.00;99.90
8214;DHT22;4148;47.974;7.824;2022-07-29T02:59:24;18.10;99.90
8214;DHT22;4148;47.974;7.824;2022-07-29T03:01:57;18.10;99.90
8214;DHT22;4148;47.974;7.824;2022-07-29T03:04:27;18.00;99.90
8214;DHT22;4148;47.974;7.824;2022-07-29T03:06:58;18.00;99.90
8214;DHT22;4148;47.974;7.824;2022-07-29T03:09:28;18.00;99.90
8214;DHT22;4148;47.974;7.824;2022-07-29T03:11:57;17.90;99.90
8214;DHT22;4148;47.974;7.824;2022-07-29T03:14:25;18.00;99.90
8214;DHT22;4148;47.974;7.824;2022-07-29T03:16:53;17.90;99.90
8214;DHT22;4148;47.974;7.824;2022-07-29T03:19:23;17.90;99.90
8214;DHT22;4148;47.974;7.824;2022-07-29T03:21:51;18.00;99.90
8214;DHT22;4148;47.974;7.824;2022-07-29T03:24:32;18.00;99.90
8214;DHT22;4148;47.974;7.824;2022-07-29T03:27:00;17.90;99.90
8214;DHT22;4148;47.974;7.824;2022-07-29T03:29:28;17.90;99.90
8214;DHT22;4148;47.974;7.824;2022-07-29T03:32:00;17.90;1.00
8214;DHT22;4148;47.974;7.824;2022-07-29T03:34:31;17.90;99.90
8214;DHT22;4148;47.974;7.824;2022-07-29T03:36:59;17.90;99.90
8214;DHT22;4148;47.974;7.824;2022-07-29T03:39:31;17.80;99.90
8214;DHT22;4148;47.974;7.824;2022-07-29T03:42:00;17.60;99.90
8214;DHT22;4148;47.974;7.824;2022-07-29T03:44:29;17.50;99.90
8214;DHT22;4148;47.974;7.824;2022-07-29T03:46:59;17.50;1.00
8214;DHT22;4148;47.974;7.824;2022-07-29T03:49:31;17.40;1.00
8214;DHT22;4148;47.974;7.824;2022-07-29T03:52:00;17.40;1.00
8214;DHT22;4148;47.974;7.824;2022-07-29T03:54:28;17.40;1.00
8214;DHT22;4148;47.974;7.824;2022-07-29T03:56:59;17.50;99.90
8214;DHT22;4148;47.974;7.824;2022-07-29T03:59:30;17.50;99.90
8214;DHT22;4148;47.974;7.824;2022-07-29T04:02:01;17.60;99.90
8214;DHT22;4148;47.974;7.824;2022-07-29T04:04:33;17.70;99.90
8214;DHT22;4148;47.974;7.824;2022-07-29T04:07:02;17.70;99.90
8214;DHT22;4148;47.974;7.824;2022-07-29T04:09:31;17.60;99.90
8214;DHT22;4148;47.974;7.824;2022-07-29T04:11:58;17.60;99.90
8214;DHT22;4148;47.974;7.824;2022-07-29T04:14:31;17.70;99.90
8214;DHT22;4148;47.974;7.824;2022-07-29T04:16:59;17.50;99.90
8214;DHT22;4148;47.974;7.824;2022-07-29T04:19:27;17.40;99.90
8214;DHT22;4148;47.974;7.824;2022-07-29T04:21:57;17.50;99.90
8214;DHT22;4148;47.974;7.824;2022-07-29T04:24:26;17.40;99.90
8214;DHT22;4148;47.974;7.824;2022-07-29T04:26:54;17.40;99.90
8214;DHT22;4148;47.974;7.824;2022-07-29T04:29:22;17.50;99.90
8214;DHT22;4148;47.974;7.824;2022-07-29T04:31:50;17.70;99.90
8214;DHT22;4148;47.974;7.824;2022-07-29T04:34:18;17.70;99.90
8214;DHT22;4148;47.974;7.824;2022-07-29T04:36:46;17.60;99.90
8214;DHT22;4148;47.974;7.824;2022-07-29T04:39:16;17.60;99.90
8214;DHT22;4148;47.974;7.824;2022-07-29T04:41:49;17.70;99.90
8214;DHT22;4148;47.974;7.824;2022-07-29T04:44:20;17.70;99.90
8214;DHT22;4148;47.974;7.824;2022-07-29T04:46:54;17.60;97.70
8214;DHT22;4148;47.974;7.824;2022-07-29T04:49:22;17.70;85.80
8214;DHT22;4148;47.974;7.824;2022-07-29T04:51:50;17.80;99.90
8214;DHT22;4148;47.974;7.824;2022-07-29T04:54:19;17.90;1.00
8214;DHT22;4148;47.974;7.824;2022-07-29T04:56:47;17.90;39.20
8214;DHT22;4148;47.974;7.824;2022-07-29T04:59:15;17.80;1.00
8214;DHT22;4148;47.974;7.824;2022-07-29T05:01:43;17.80;99.90
8214;DHT22;4148;47.974;7.824;2022-07-29T05:04:11;17.90;99.90
8214;DHT22;4148;47.974;7.824;2022-07-29T05:06:39;17.90;99.90
8214;DHT22;4148;47.974;7.824;2022-07-29T05:09:07;17.90;99.90
8214;DHT22;4148;47.974;7.824;2022-07-29T05:11:36;18.00;99.90
8214;DHT22;4148;47.974;7.824;2022-07-29T05:14:04;17.90;99.90
8214;DHT22;4148;47.974;7.824;2022-07-29T05:16:32;17.90;57.20
8214;DHT22;4148;47.974;7.824;2022-07-29T05:19:00;18.10;99.90
8214;DHT22;4148;47.974;7.824;2022-07-29T05:21:28;18.20;99.90
8214;DHT22;4148;47.974;7.824;2022-07-29T05:23:55;18.20;78.00
8214;DHT22;4148;47.974;7.824;2022-07-29T05:26:23;18.30;99.90
8214;DHT22;4148;47.974;7.824;2022-07-29T05:28:53;18.30;99.90
8214;DHT22;4148;47.974;7.824;2022-07-29T05:31:21;18.40;99.90
8214;DHT22;4148;47.974;7.824;2022-07-29T05:33:49;18.40;1.00
8214;DHT22;4148;47.974;7.824;2022-07-29T05:36:17;18.40;1.00
8214;DHT22;4148;47.974;7.824;2022-07-29T05:38:45;18.40;1.00
8214;DHT22;4148;47.974;7.824;2022-07-29T05:41:13;18.50;11.70
8214;DHT22;4148;47.974;7.824;2022-07-29T05:43:40;18.50;1.00
8214;DHT22;4148;47.974;7.824;2022-07-29T05:46:10;18.50;99.90
8214;DHT22;4148;47.974;7.824;2022-07-29T05:48:37;18.60;33.30
8214;DHT22;4148;47.974;7.824;2022-07-29T05:51:05;18.70;1.00
8214;DHT22;4148;47.974;7.824;2022-07-29T05:53:33;18.80;92.00
8214;DHT22;4148;47.974;7.824;2022-07-29T05:56:03;18.90;1.00
8214;DHT22;4148;47.974;7.824;2022-07-29T05:58:31;19.10;1.00
8214;DHT22;4148;47.974;7.824;2022-07-29T06:00:59;19.20;1.00
8214;DHT22;4148;47.974;7.824;2022-07-29T06:03:29;19.20;99.90
8214;DHT22;4148;47.974;7.824;2022-07-29T06:05:57;19.20;99.90
8214;DHT22;4148;47.974;7.824;2022-07-29T06:08:25;19.20;99.90
8214;DHT22;4148;47.974;7.824;2022-07-29T06:10:53;19.30;1.00
8214;DHT22;4148;47.974;7.824;2022-07-29T06:13:20;19.40;99.90
8214;DHT22;4148;47.974;7.824;2022-07-29T06:15:48;19.50;99.90
8214;DHT22;4148;47.974;7.824;2022-07-29T06:18:16;19.60;99.90
8214;DHT22;4148;47.974;7.824;2022-07-29T06:20:46;19.80;63.00
8214;DHT22;4148;47.974;7.824;2022-07-29T06:23:14;20.00;99.90
8214;DHT22;4148;47.974;7.824;2022-07-29T06:25:41;20.20;99.90
8214;DHT22;4148;47.974;7.824;2022-07-29T06:28:10;20.40;99.90
8214;DHT22;4148;47.974;7.824;2022-07-29T06:30:38;20.60;51.90
8214;DHT22;4148;47.974;7.824;2022-07-29T06:33:06;20.80;1.00
8214;DHT22;4148;47.974;7.824;2022-07-29T06:35:35;21.00;99.90
8214;DHT22;4148;47.974;7.824;2022-07-29T06:38:09;21.10;99.90
8214;DHT22;4148;47.974;7.824;2022-07-29T06:40:57;21.30;99.90
8214;DHT22;4148;47.974;7.824;2022-07-29T06:43:33;21.40;99.90
8214;DHT22;4148;47.974;7.824;2022-07-29T06:46:19;21.50;99.90
8214;DHT22;4148;47.974;7.824;2022-07-29T06:48:48;21.70;1.00
8214;DHT22;4148;47.974;7.824;2022-07-29T06:51:16;21.80;1.00
8214;DHT22;4148;47.974;7.824;2022-07-29T06:53:51;21.90;99.90
8214;DHT22;4148;47.974;7.824;2022-07-29T06:56:28;22.00;99.90
8214;DHT22;4148;47.974;7.824;2022-07-29T06:58:56;22.00;99.90
8214;DHT22;4148;47.974;7.824;2022-07-29T07:01:24;22.00;99.90
8214;DHT22;4148;47.974;7.824;2022-07-29T07:03:52;22.10;99.90
8214;DHT22;4148;47.974;7.824;2022-07-29T07:06:20;22.20;99.90
8214;DHT22;4148;47.974;7.824;2022-07-29T07:08:49;22.50;99.90
8214;DHT22;4148;47.974;7.824;2022-07-29T07:11:17;22.50;87.40
8214;DHT22;4148;47.974;7.824;2022-07-29T07:13:45;22.60;49.40
8214;DHT22;4148;47.974;7.824;2022-07-29T07:16:13;22.60;1.00
8214;DHT22;4148;47.974;7.824;2022-07-29T07:18:41;22.70;20.50
8214;DHT22;4148;47.974;7.824;2022-07-29T07:21:09;22.70;1.00
8214;DHT22;4148;47.974;7.824;2022-07-29T07:23:37;22.80;1.00
8214;DHT22;4148;47.974;7.824;2022-07-29T07:26:06;22.70;1.00
8214;DHT22;4148;47.974;7.824;2022-07-29T07:28:34;22.70;1.00
8214;DHT22;4148;47.974;7.824;2022-07-29T07:31:02;22.80;1.00
8214;DHT22;4148;47.974;7.824;2022-07-29T07:33:30;22.90;1.00
8214;DHT22;4148;47.974;7.824;2022-07-29T07:35:58;22.90;1.00
8214;DHT22;4148;47.974;7.824;2022-07-29T07:38:25;22.90;1.00
8214;DHT22;4148;47.974;7.824;2022-07-29T07:40:53;22.80;1.00
8214;DHT22;4148;47.974;7.824;2022-07-29T07:43:23;22.80;1.00
8214;DHT22;4148;47.974;7.824;2022-07-29T07:45:51;22.90;1.00
8214;DHT22;4148;47.974;7.824;2022-07-29T07:48:19;23.00;1.00
8214;DHT22;4148;47.974;7.824;2022-07-29T07:50:47;23.00;1.00
8214;DHT22;4148;47.974;7.824;2022-07-29T07:53:17;23.00;1.00
8214;DHT22;4148;47.974;7.824;2022-07-29T07:55:45;23.10;1.00
8214;DHT22;4148;47.974;7.824;2022-07-29T07:58:34;23.00;1.00
8214;DHT22;4148;47.974;7.824;2022-07-29T08:01:02;23.10;1.00
8214;DHT22;4148;47.974;7.824;2022-07-29T08:03:31;23.10;1.00
8214;DHT22;4148;47.974;7.824;2022-07-29T08:05:58;23.10;1.00
8214;DHT22;4148;47.974;7.824;2022-07-29T08:08:26;23.20;1.00
8214;DHT22;4148;47.974;7.824;2022-07-29T08:10:54;23.20;1.00
8214;DHT22;4148;47.974;7.824;2022-07-29T08:13:24;23.30;1.00
8214;DHT22;4148;47.974;7.824;2022-07-29T08:15:56;23.40;1.00
8214;DHT22;4148;47.974;7.824;2022-07-29T08:18:27;23.60;1.00
8214;DHT22;4148;47.974;7.824;2022-07-29T08:20:56;23.70;1.00
8214;DHT22;4148;47.974;7.824;2022-07-29T08:23:24;23.70;1.00
8214;DHT22;4148;47.974;7.824;2022-07-29T08:26:13;23.90;1.00
8214;DHT22;4148;47.974;7.824;2022-07-29T08:28:44;24.10;1.00
8214;DHT22;4148;47.974;7.824;2022-07-29T08:31:14;24.20;1.00
8214;DHT22;4148;47.974;7.824;2022-07-29T08:33:42;24.40;1.00
8214;DHT22;4148;47.974;7.824;2022-07-29T08:36:10;24.60;1.00
8214;DHT22;4148;47.974;7.824;2022-07-29T08:38:39;25.00;1.00
8214;DHT22;4148;47.974;7.824;2022-07-29T08:41:07;25.50;1.00
8214;DHT22;4148;47.974;7.824;2022-07-29T08:43:35;25.80;1.00
8214;DHT22;4148;47.974;7.824;2022-07-29T08:46:04;25.90;99.90
8214;DHT22;4148;47.974;7.824;2022-07-29T08:48:34;25.90;99.90
8214;DHT22;4148;47.974;7.824;2022-07-29T08:51:02;25.60;99.90
8214;DHT22;4148;47.974;7.824;2022-07-29T08:53:31;25.60;99.90
8214;DHT22;4148;47.974;7.824;2022-07-29T08:56:00;25.50;99.90
8214;DHT22;4148;47.974;7.824;2022-07-29T08:58:32;25.40;99.90
8214;DHT22;4148;47.974;7.824;2022-07-29T09:01:04;25.50;99.90
8214;DHT22;4148;47.974;7.824;2022-07-29T09:03:40;25.50;99.90
8214;DHT22;4148;47.974;7.824;2022-07-29T09:06:08;25.50;99.90
8214;DHT22;4148;47.974;7.824;2022-07-29T09:08:37;25.40;99.90
8214;DHT22;4148;47.974;7.824;2022-07-29T09:11:05;25.40;99.90
8214;DHT22;4148;47.974;7.824;2022-07-29T09:13:34;25.30;99.90
8214;DHT22;4148;47.974;7.824;2022-07-29T09:16:03;25.20;99.90
8214;DHT22;4148;47.974;7.824;2022-07-29T09:18:36;25.10;99.90
8214;DHT22;4148;47.974;7.824;2022-07-29T09:21:08;25.10;99.90
8214;DHT22;4148;47.974;7.824;2022-07-29T09:24:04;25.00;99.90
8214;DHT22;4148;47.974;7.824;2022-07-29T09:26:35;25.10;99.90
8214;DHT22;4148;47.974;7.824;2022-07-29T09:29:09;25.10;99.90
8214;DHT22;4148;47.974;7.824;2022-07-29T09:31:39;25.20;99.90
8214;DHT22;4148;47.974;7.824;2022-07-29T09:34:08;25.30;99.90
8214;DHT22;4148;47.974;7.824;2022-07-29T09:36:42;25.30;99.90
8214;DHT22;4148;47.974;7.824;2022-07-29T09:39:11;25.40;99.90
8214;DHT22;4148;47.974;7.824;2022-07-29T09:41:47;25.40;99.90
8214;DHT22;4148;47.974;7.824;2022-07-29T09:44:15;25.30;99.90
8214;DHT22;4148;47.974;7.824;2022-07-29T09:46:57;25.40;99.90
8214;DHT22;4148;47.974;7.824;2022-07-29T09:49:29;25.40;99.90
8214;DHT22;4148;47.974;7.824;2022-07-29T09:52:06;25.50;99.90
8214;DHT22;4148;47.974;7.824;2022-07-29T09:54:35;25.40;99.90
8214;DHT22;4148;47.974;7.824;2022-07-29T09:57:08;25.50;99.90
8214;DHT22;4148;47.974;7.824;2022-07-29T09:59:39;25.50;99.90
8214;DHT22;4148;47.974;7.824;2022-07-29T10:02:16;25.50;99.90
8214;DHT22;4148;47.974;7.824;2022-07-29T10:04:49;25.60;99.90
8214;DHT22;4148;47.974;7.824;2022-07-29T10:07:18;25.60;99.90
8214;DHT22;4148;47.974;7.824;2022-07-29T10:09:52;25.60;99.90
8214;DHT22;4148;47.974;7.824;2022-07-29T10:12:21;25.60;99.90
8214;DHT22;4148;47.974;7.824;2022-07-29T10:14:50;25.60;99.90
8214;DHT22;4148;47.974;7.824;2022-07-29T10:17:18;25.50;99.90
8214;DHT22;4148;47.974;7.824;2022-07-29T10:19:47;25.50;99.90
8214;DHT22;4148;47.974;7.824;2022-07-29T10:22:16;25.60;99.90
8214;DHT22;4148;47.974;7.824;2022-07-29T10:25:05;25.60;99.90
8214;DHT22;4148;47.974;7.824;2022-07-29T10:27:34;25.50;99.90
8214;DHT22;4148;47.974;7.824;2022-07-29T10:30:03;25.60;99.90
8214;DHT22;4148;47.974;7.824;2022-07-29T10:32:39;25.70;99.90
8214;DHT22;4148;47.974;7.824;2022-07-29T10:38:10;25.90;99.90
8214;DHT22;4148;47.974;7.824;2022-07-29T10:40:51;25.80;99.90
8214;DHT22;4148;47.974;7.824;2022-07-29T10:43:47;25.90;99.90
8214;DHT22;4148;47.974;7.824;2022-07-29T10:46:17;26.00;99.90
8214;DHT22;4148;47.974;7.824;2022-07-29T10:49:06;26.00;99.90
8214;DHT22;4148;47.974;7.824;2022-07-29T10:51:59;26.00;99.90
8214;DHT22;4148;47.974;7.824;2022-07-29T10:54:46;26.10;99.90
8214;DHT22;4148;47.974;7.824;2022-07-29T10:57:20;26.30;99.90
8214;DHT22;4148;47.974;7.824;2022-07-29T11:00:31;26.30;99.90
8214;DHT22;4148;47.974;7.824;2022-07-29T11:02:59;26.50;99.90
8214;DHT22;4148;47.974;7.824;2022-07-29T11:05:52;26.60;99.90
8214;DHT22;4148;47.974;7.824;2022-07-29T11:08:22;26.70;99.90
8214;DHT22;4148;47.974;7.824;2022-07-29T11:14:14;26.60;99.90
8214;DHT22;4148;47.974;7.824;2022-07-29T11:16:59;26.60;99.90
8214;DHT22;4148;47.974;7.824;2022-07-29T11:19:32;26.60;99.90
8214;DHT22;4148;47.974;7.824;2022-07-29T11:22:01;26.70;99.90
8214;DHT22;4148;47.974;7.824;2022-07-29T11:24:31;26.60;99.90
8214;DHT22;4148;47.974;7.824;2022-07-29T11:27:15;26.60;99.90
8214;DHT22;4148;47.974;7.824;2022-07-29T11:29:53;26.40;99.90
8214;DHT22;4148;47.974;7.824;2022-07-29T11:32:23;26.40;99.90
8214;DHT22;4148;47.974;7.824;2022-07-29T11:35:12;26.20;99.90
8214;DHT22;4148;47.974;7.824;2022-07-29T11:37:42;26.20;99.90
8214;DHT22;4148;47.974;7.824;2022-07-29T11:40:18;26.20;99.90
8214;DHT22;4148;47.974;7.824;2022-07-29T11:42:48;26.20;99.90
8214;DHT22;4148;47.974;7.824;2022-07-29T11:45:26;26.20;99.90
8214;DHT22;4148;47.974;7.824;2022-07-29T11:48:15;26.30;99.90
8214;DHT22;4148;47.974;7.824;2022-07-29T11:50:58;26.20;99.90
8214;DHT22;4148;47.974;7.824;2022-07-29T11:53:28;26.20;99.90
8214;DHT22;4148;47.974;7.824;2022-07-29T11:55:59;26.20;99.90
8214;DHT22;4148;47.974;7.824;2022-07-29T11:58:28;26.10;99.90
8214;DHT22;4148;47.974;7.824;2022-07-29T12:00:59;26.20;99.90
8214;DHT22;4148;47.974;7.824;2022-07-29T12:03:47;26.20;99.90
8214;DHT22;4148;47.974;7.824;2022-07-29T12:06:16;26.20;99.90
8214;DHT22;4148;47.974;7.824;2022-07-29T12:08:46;26.30;99.90
8214;DHT22;4148;47.974;7.824;2022-07-29T12:11:15;26.30;99.90
8214;DHT22;4148;47.974;7.824;2022-07-29T12:13:47;26.20;99.90
8214;DHT22;4148;47.974;7.824;2022-07-29T12:16:17;26.10;99.90
8214;DHT22;4148;47.974;7.824;2022-07-29T12:18:58;26.10;99.90
8214;DHT22;4148;47.974;7.824;2022-07-29T12:21:28;26.10;99.90
8214;DHT22;4148;47.974;7.824;2022-07-29T12:23:57;26.10;99.90
8214;DHT22;4148;47.974;7.824;2022-07-29T12:26:35;26.10;99.90
8214;DHT22;4148;47.974;7.824;2022-07-29T12:29:03;26.20;99.90
8214;DHT22;4148;47.974;7.824;2022-07-29T12:31:42;26.20;99.90
8214;DHT22;4148;47.974;7.824;2022-07-29T12:34:11;26.20;99.90
8214;DHT22;4148;47.974;7.824;2022-07-29T12:36:45;26.30;99.90
8214;DHT22;4148;47.974;7.824;2022-07-29T12:39:14;26.50;99.90
8214;DHT22;4148;47.974;7.824;2022-07-29T12:41:44;26.50;99.90
8214;DHT22;4148;47.974;7.824;2022-07-29T12:44:11;26.40;99.90
8214;DHT22;4148;47.974;7.824;2022-07-29T12:46:40;26.30;99.90
8214;DHT22;4148;47.974;7.824;2022-07-29T12:49:09;26.20;99.90
8214;DHT22;4148;47.974;7.824;2022-07-29T12:51:39;26.20;99.90
8214;DHT22;4148;47.974;7.824;2022-07-29T12:54:08;26.20;99.90
8214;DHT22;4148;47.974;7.824;2022-07-29T12:56:38;26.20;99.90
8214;DHT22;4148;47.974;7.824;2022-07-29T12:59:14;26.20;99.90
8214;DHT22;4148;47.974;7.824;2022-07-29T13:01:43;26.20;99.90
8214;DHT22;4148;47.974;7.824;2022-07-29T13:04:24;26.10;99.90
8214;DHT22;4148;47.974;7.824;2022-07-29T13:06:59;26.20;99.90
8214;DHT22;4148;47.974;7.824;2022-07-29T13:09:37;26.20;99.90
8214;DHT22;4148;47.974;7.824;2022-07-29T13:12:07;26.20;99.90
8214;DHT22;4148;47.974;7.824;2022-07-29T13:14:38;26.30;99.90
8214;DHT22;4148;47.974;7.824;2022-07-29T13:17:07;26.30;99.90
8214;DHT22;4148;47.974;7.824;2022-07-29T13:19:39;26.10;99.90
8214;DHT22;4148;47.974;7.824;2022-07-29T13:22:08;26.10;99.90
8214;DHT22;4148;47.974;7.824;2022-07-29T13:24:48;26.20;99.90
8214;DHT22;4148;47.974;7.824;2022-07-29T13:27:17;26.10;99.90
8214;DHT22;4148;47.974;7.824;2022-07-29T13:29:45;26.00;99.90
8214;DHT22;4148;47.974;7.824;2022-07-29T13:32:13;26.10;99.90
8214;DHT22;4148;47.974;7.824;2022-07-29T13:34:43;26.00;99.90
8214;DHT22;4148;47.974;7.824;2022-07-29T13:37:11;26.10;99.90
8214;DHT22;4148;47.974;7.824;2022-07-29T13:39:39;26.00;99.90
8214;DHT22;4148;47.974;7.824;2022-07-29T13:42:07;26.00;99.90
8214;DHT22;4148;47.974;7.824;2022-07-29T13:44:36;26.10;99.90
8214;DHT22;4148;47.974;7.824;2022-07-29T13:47:08;26.20;99.90
8214;DHT22;4148;47.974;7.824;2022-07-29T13:49:36;26.30;99.90
8214;DHT22;4148;47.974;7.824;2022-07-29T13:52:05;26.30;99.90
8214;DHT22;4148;47.974;7.824;2022-07-29T13:54:34;26.20;99.90
8214;DHT22;4148;47.974;7.824;2022-07-29T13:57:08;26.20;99.90
8214;DHT22;4148;47.974;7.824;2022-07-29T13:59:37;26.20;99.90
8214;DHT22;4148;47.974;7.824;2022-07-29T14:02:05;26.20;99.90
8214;DHT22;4148;47.974;7.824;2022-07-29T14:04:33;26.20;99.90
8214;DHT22;4148;47.974;7.824;2022-07-29T14:07:06;26.10;99.90
8214;DHT22;4148;47.974;7.824;2022-07-29T14:09:35;26.00;99.90
8214;DHT22;4148;47.974;7.824;2022-07-29T14:12:08;26.10;99.90
8214;DHT22;4148;47.974;7.824;2022-07-29T14:14:36;26.10;99.90
8214;DHT22;4148;47.974;7.824;2022-07-29T14:17:04;26.10;99.90
8214;DHT22;4148;47.974;7.824;2022-07-29T14:19:34;26.00;99.90
8214;DHT22;4148;47.974;7.824;2022-07-29T14:22:07;25.80;99.90
8214;DHT22;4148;47.974;7.824;2022-07-29T14:24:37;25.70;99.90
8214;DHT22;4148;47.974;7.824;2022-07-29T14:27:05;25.80;99.90
8214;DHT22;4148;47.974;7.824;2022-07-29T14:29:33;25.70;99.90
8214;DHT22;4148;47.974;7.824;2022-07-29T14:32:05;25.60;99.90
8214;DHT22;4148;47.974;7.824;2022-07-29T14:34:33;25.50;99.90
8214;DHT22;4148;47.974;7.824;2022-07-29T14:37:01;25.60;99.90
8214;DHT22;4148;47.974;7.824;2022-07-29T14:39:33;25.50;99.90
8214;DHT22;4148;47.974;7.824;2022-07-29T14:42:08;25.60;99.90
8214;DHT22;4148;47.974;7.824;2022-07-29T14:44:38;25.50;99.90
8214;DHT22;4148;47.974;7.824;2022-07-29T14:47:07;25.50;99.90
8214;DHT22;4148;47.974;7.824;2022-07-29T14:49:35;25.60;99.90
8214;DHT22;4148;47.974;7.824;2022-07-29T14:52:04;25.50;99.90
8214;DHT22;4148;47.974;7.824;2022-07-29T14:54:33;25.50;99.90
8214;DHT22;4148;47.974;7.824;2022-07-29T14:57:01;25.50;99.90
8214;DHT22;4148;47.974;7.824;2022-07-29T14:59:29;25.50;99.90
8214;DHT22;4148;47.974;7.824;2022-07-29T15:01:57;25.60;99.90
8214;DHT22;4148;47.974;7.824;2022-07-29T15:04:25;25.70;99.90
8214;DHT22;4148;47.974;7.824;2022-07-29T15:06:53;25.80;99.90
8214;DHT22;4148;47.974;7.824;2022-07-29T15:09:21;25.80;99.90
8214;DHT22;4148;47.974;7.824;2022-07-29T15:11:51;25.70;99.90
8214;DHT22;4148;47.974;7.824;2022-07-29T15:14:18;25.70;99.90
8214;DHT22;4148;47.974;7.824;2022-07-29T15:16:46;25.80;99.90
8214;DHT22;4148;47.974;7.824;2022-07-29T15:19:14;25.70;99.90
8214;DHT22;4148;47.974;7.824;2022-07-29T15:21:42;25.70;99.90
8214;DHT22;4148;47.974;7.824;2022-07-29T15:24:14;25.60;99.90
8214;DHT22;4148;47.974;7.824;2022-07-29T15:26:43;25.70;99.90
8214;DHT22;4148;47.974;7.824;2022-07-29T15:29:12;25.80;99.90
8214;DHT22;4148;47.974;7.824;2022-07-29T15:31:41;25.70;99.90
8214;DHT22;4148;47.974;7.824;2022-07-29T15:34:09;25.70;99.90
8214;DHT22;4148;47.974;7.824;2022-07-29T15:36:36;25.70;99.90
8214;DHT22;4148;47.974;7.824;2022-07-29T15:39:21;25.70;99.90
8214;DHT22;4148;47.974;7.824;2022-07-29T15:41:49;25.70;99.90
8214;DHT22;4148;47.974;7.824;2022-07-29T15:44:18;25.70;99.90
8214;DHT22;4148;47.974;7.824;2022-07-29T15:46:47;25.80;99.90
8214;DHT22;4148;47.974;7.824;2022-07-29T15:49:31;25.90;99.90
8214;DHT22;4148;47.974;7.824;2022-07-29T15:52:17;25.90;99.90
8214;DHT22;4148;47.974;7.824;2022-07-29T15:54:52;25.90;99.90
8214;DHT22;4148;47.974;7.824;2022-07-29T15:57:21;25.90;99.90
8214;DHT22;4148;47.974;7.824;2022-07-29T15:59:50;26.00;99.90
8214;DHT22;4148;47.974;7.824;2022-07-29T16:02:18;26.00;99.90
8214;DHT22;4148;47.974;7.824;2022-07-29T16:04:47;26.00;99.90
8214;DHT22;4148;47.974;7.824;2022-07-29T16:07:15;26.00;99.90
8214;DHT22;4148;47.974;7.824;2022-07-29T16:09:43;26.20;99.90
8214;DHT22;4148;47.974;7.824;2022-07-29T16:12:18;26.30;99.90
8214;DHT22;4148;47.974;7.824;2022-07-29T16:14:46;26.20;99.90
8214;DHT22;4148;47.974;7.824;2022-07-29T16:17:16;26.20;99.90
8214;DHT22;4148;47.974;7.824;2022-07-29T16:19:44;26.30;99.90
8214;DHT22;4148;47.974;7.824;2022-07-29T16:22:12;26.40;99.90
8214;DHT22;4148;47.974;7.824;2022-07-29T16:24:40;26.40;99.90
8214;DHT22;4148;47.974;7.824;2022-07-29T16:27:08;26.40;99.90
8214;DHT22;4148;47.974;7.824;2022-07-29T16:29:36;26.30;99.90
8214;DHT22;4148;47.974;7.824;2022-07-29T16:32:05;26.40;99.90
8214;DHT22;4148;47.974;7.824;2022-07-29T16:34:34;26.40;99.90
8214;DHT22;4148;47.974;7.824;2022-07-29T16:37:02;26.40;99.90